createdAt,value
2023-04-14T00:00:23.130Z,95910.78
2023-04-14T00:01:24.673Z,95906.16
2023-04-14T00:02:26.382Z,95898.84
2023-04-14T00:03:28.130Z,95894.59
2023-04-14T00:04:29.908Z,95898.44
2023-04-14T00:05:32.320Z,95896.06
2023-04-14T00:06:33.917Z,95894.56
2023-04-14T00:07:35.618Z,95888.78
2023-04-14T00:08:37.234Z,95886.88
2023-04-14T00:09:38.993Z,95882.25
2023-04-14T00:10:40.743Z,95880.69
2023-04-14T00:11:42.299Z,95879.88
2023-04-14T00:12:43.891Z,95884.47
2023-04-14T00:13:45.621Z,95881.41
2023-04-14T00:14:47.209Z,95878.28
2023-04-14T00:15:48.768Z,95885.22
2023-04-14T00:16:50.410Z,95882.19
2023-04-14T00:17:53.110Z,95884.50
2023-04-14T00:18:54.786Z,95881.81
2023-04-14T00:19:56.305Z,95886.03
2023-04-14T00:20:58.045Z,95884.50
2023-04-14T00:21:59.526Z,95881.81
2023-04-14T00:23:01.063Z,95883.34
2023-04-14T00:24:02.748Z,95884.88
2023-04-14T00:25:04.648Z,95888.34
2023-04-14T00:26:06.244Z,95888.34
2023-04-14T00:27:07.880Z,95886.78
2023-04-14T00:28:09.419Z,95887.56
2023-04-14T00:29:10.937Z,95878.75
2023-04-14T00:30:12.663Z,95885.28
2023-04-14T00:31:14.239Z,95885.28
2023-04-14T00:32:16.774Z,95896.06
2023-04-14T00:33:18.288Z,95898.41
2023-04-14T00:34:19.844Z,95894.53
2023-04-14T00:35:21.524Z,95888.34
2023-04-14T00:36:23.044Z,95893.75
2023-04-14T00:37:24.606Z,95887.56
2023-04-14T00:38:26.300Z,95892.59
2023-04-14T00:39:27.826Z,95894.56
2023-04-14T00:40:30.399Z,95895.31
2023-04-14T00:41:35.168Z,95892.59
2023-04-14T00:42:46.459Z,95895.31
2023-04-14T00:43:48.364Z,95898.41
2023-04-14T00:44:49.935Z,95891.06
2023-04-14T00:45:52.512Z,95888.75
2023-04-14T00:46:54.870Z,95898.00
2023-04-14T00:47:58.382Z,95902.25
2023-04-14T00:49:00.762Z,95891.41
2023-04-14T00:50:03.996Z,95894.47
2023-04-14T00:51:05.791Z,95899.91
2023-04-14T00:52:07.381Z,95890.63
2023-04-14T00:53:08.960Z,95895.63
2023-04-14T00:54:11.511Z,95893.25
2023-04-14T00:55:15.700Z,95888.22
2023-04-14T00:56:18.617Z,95891.28
2023-04-14T00:57:20.322Z,95891.59
2023-04-14T00:58:21.984Z,95893.47
2023-04-14T00:59:23.623Z,95893.44
2023-04-14T01:00:25.545Z,95893.03
2023-04-14T01:01:29.251Z,95891.94
2023-04-14T01:02:32.086Z,95892.31
2023-04-14T01:03:36.319Z,95891.09
2023-04-14T01:04:52.572Z,95887.56
2023-04-14T01:05:56.474Z,95886.72
2023-04-14T01:06:58.165Z,95886.78
2023-04-14T01:08:00.469Z,95880.69
2023-04-14T01:09:02.934Z,95882.28
2023-04-14T01:10:05.923Z,95884.94
2023-04-14T01:11:10.440Z,95886.41
2023-04-14T01:12:39.926Z,95881.03
2023-04-14T01:13:53.853Z,95882.59
2023-04-14T01:15:26.145Z,95880.34
2023-04-14T01:16:35.030Z,95878.84
2023-04-14T01:17:49.909Z,95880.41
2023-04-14T01:19:16.886Z,95885.41
2023-04-14T01:20:27.189Z,95880.44
2023-04-14T01:21:33.201Z,95883.50
2023-04-14T01:22:42.080Z,95887.03
2023-04-14T01:24:20.952Z,95875.88
2023-04-14T01:25:56.125Z,95880.91
2023-04-14T01:27:13.163Z,95880.53
2023-04-14T01:28:41.055Z,95874.38
2023-04-14T01:30:00.624Z,95875.88
2023-04-14T01:31:14.050Z,95873.16
2023-04-14T01:32:22.239Z,95870.44
2023-04-14T01:33:27.558Z,95866.97
2023-04-14T01:34:38.571Z,95865.78
2023-04-14T01:35:45.793Z,95864.97
2023-04-14T01:37:13.756Z,95862.28
2023-04-14T01:38:22.434Z,95865.78
2023-04-14T01:39:31.981Z,95868.81
2023-04-14T01:40:36.109Z,95867.28
2023-04-14T01:41:42.223Z,95868.03
2023-04-14T01:42:47.573Z,95869.53
2023-04-14T01:43:54.062Z,95864.53
2023-04-14T01:44:58.741Z,95863.78
2023-04-14T01:46:07.093Z,95866.84
2023-04-14T01:47:12.711Z,95860.31
2023-04-14T01:48:16.030Z,95864.16
2023-04-14T01:49:21.631Z,95867.22
2023-04-14T01:50:24.393Z,95868.00
2023-04-14T01:51:28.385Z,95860.31
2023-04-14T01:52:31.029Z,95861.03
2023-04-14T01:53:33.722Z,95862.53
2023-04-14T01:54:38.606Z,95874.84
2023-04-14T01:55:41.405Z,95864.50
2023-04-14T01:56:43.849Z,95869.47
2023-04-14T01:57:48.588Z,95876.84
2023-04-14T01:58:51.731Z,95872.59
2023-04-14T01:59:57.623Z,95865.66
2023-04-14T02:00:59.959Z,95871.81
2023-04-14T02:02:03.783Z,95873.38
2023-04-14T02:03:06.928Z,95872.59
2023-04-14T02:04:10.042Z,95862.66
2023-04-14T02:05:13.454Z,95867.63
2023-04-14T02:06:16.751Z,95864.56
2023-04-14T02:07:21.799Z,95864.56
2023-04-14T02:08:24.519Z,95859.13
2023-04-14T02:09:28.150Z,95857.91
2023-04-14T02:10:30.514Z,95851.38
2023-04-14T02:11:34.768Z,95851.69
2023-04-14T02:12:41.161Z,95860.91
2023-04-14T02:13:43.859Z,95857.78
2023-04-14T02:14:46.853Z,95858.56
2023-04-14T02:15:51.609Z,95850.09
2023-04-14T02:16:54.224Z,95854.72
2023-04-14T02:17:58.381Z,95847.78
2023-04-14T02:19:01.254Z,95853.94
2023-04-14T02:20:04.090Z,95844.31
2023-04-14T02:21:06.436Z,95841.63
2023-04-14T02:22:08.088Z,95841.63
2023-04-14T02:23:09.735Z,95831.69
2023-04-14T02:24:11.551Z,95840.94
2023-04-14T02:25:13.326Z,95834.03
2023-04-14T02:26:18.666Z,95829.81
2023-04-14T02:27:29.075Z,95828.28
2023-04-14T02:28:38.004Z,95823.31
2023-04-14T02:29:44.857Z,95822.50
2023-04-14T02:30:51.644Z,95820.91
2023-04-14T02:31:59.769Z,95815.53
2023-04-14T02:33:13.820Z,95810.56
2023-04-14T02:34:18.893Z,95812.06
2023-04-14T02:35:27.363Z,95815.94
2023-04-14T02:36:36.446Z,95814.09
2023-04-14T02:37:42.137Z,95816.38
2023-04-14T02:38:52.353Z,95816.38
2023-04-14T02:40:00.846Z,95827.94
2023-04-14T02:41:08.620Z,95836.41
2023-04-14T02:42:16.745Z,95837.19
2023-04-14T02:43:26.475Z,95844.09
2023-04-14T02:44:32.364Z,95843.31
2023-04-14T02:45:36.326Z,95853.72
2023-04-14T02:46:42.032Z,95851.03
2023-04-14T02:47:47.817Z,95851.81
2023-04-14T02:48:51.676Z,95851.06
2023-04-14T02:49:54.763Z,95842.56
2023-04-14T02:50:59.008Z,95839.81
2023-04-14T02:52:02.171Z,95845.59
2023-04-14T02:53:04.681Z,95843.31
2023-04-14T02:54:06.814Z,95845.59
2023-04-14T02:55:10.817Z,95857.94
2023-04-14T02:56:13.107Z,95850.31
2023-04-14T02:57:15.050Z,95848.75
2023-04-14T02:58:17.570Z,95834.16
2023-04-14T02:59:21.243Z,95822.53
2023-04-14T03:00:23.861Z,95805.50
2023-04-14T03:01:26.901Z,95801.22
2023-04-14T03:02:29.169Z,95800.03
2023-04-14T03:03:35.418Z,95796.16
2023-04-14T03:04:38.979Z,95785.75
2023-04-14T03:05:41.529Z,95774.97
2023-04-14T03:06:44.141Z,95761.09
2023-04-14T03:07:47.584Z,95753.03
2023-04-14T03:08:51.623Z,95763.38
2023-04-14T03:09:53.696Z,95764.56
2023-04-14T03:10:56.118Z,95758.00
2023-04-14T03:11:58.921Z,95748.34
2023-04-14T03:13:03.704Z,95746.03
2023-04-14T03:14:07.114Z,95728.72
2023-04-14T03:15:10.403Z,95717.56
2023-04-14T03:16:13.297Z,95715.28
2023-04-14T03:17:17.517Z,95705.41
2023-04-14T03:18:21.203Z,95703.16
2023-04-14T03:19:23.963Z,95705.13
2023-04-14T03:20:26.833Z,95708.28
2023-04-14T03:21:30.169Z,95716.38
2023-04-14T03:22:36.171Z,95717.56
2023-04-14T03:23:39.509Z,95725.28
2023-04-14T03:24:42.769Z,95735.69
2023-04-14T03:25:46.650Z,95737.22
2023-04-14T03:26:49.604Z,95731.84
2023-04-14T03:27:53.193Z,95727.22
2023-04-14T03:28:57.100Z,95732.59
2023-04-14T03:30:03.425Z,95722.22
2023-04-14T03:31:07.975Z,95726.06
2023-04-14T03:32:11.250Z,95728.00
2023-04-14T03:33:18.105Z,95741.84
2023-04-14T03:34:21.048Z,95721.03
2023-04-14T03:35:23.429Z,95741.06
2023-04-14T03:36:26.428Z,95744.16
2023-04-14T03:37:28.907Z,95746.81
2023-04-14T03:38:33.187Z,95737.53
2023-04-14T03:39:36.809Z,95735.63
2023-04-14T03:40:41.231Z,95740.97
2023-04-14T03:41:47.958Z,95726.69
2023-04-14T03:42:50.300Z,95719.38
2023-04-14T03:43:56.823Z,95719.00
2023-04-14T03:45:00.658Z,95713.22
2023-04-14T03:46:05.381Z,95702.84
2023-04-14T03:47:08.732Z,95699.41
2023-04-14T03:48:14.560Z,95694.75
2023-04-14T03:49:17.774Z,95701.34
2023-04-14T03:50:23.158Z,95705.19
2023-04-14T03:51:27.650Z,95711.34
2023-04-14T03:52:33.568Z,95707.09
2023-04-14T03:53:37.029Z,95712.88
2023-04-14T03:54:41.991Z,95715.53
2023-04-14T03:55:46.282Z,95711.66
2023-04-14T03:56:49.399Z,95720.16
2023-04-14T03:57:52.209Z,95710.16
2023-04-14T03:58:55.674Z,95707.09
2023-04-14T03:59:58.423Z,95706.72
2023-04-14T04:01:01.911Z,95705.94
2023-04-14T04:02:04.523Z,95710.56
2023-04-14T04:03:06.453Z,95734.06
2023-04-14T04:04:10.090Z,95732.53
2023-04-14T04:05:12.887Z,95739.44
2023-04-14T04:06:15.265Z,95739.47
2023-04-14T04:07:18.971Z,95738.69
2023-04-14T04:08:23.021Z,95748.66
2023-04-14T04:09:25.409Z,95746.28
2023-04-14T04:10:27.033Z,95743.56
2023-04-14T04:11:30.259Z,95733.94
2023-04-14T04:12:32.948Z,95735.50
2023-04-14T04:13:36.225Z,95737.38
2023-04-14T04:14:40.568Z,95739.69
2023-04-14T04:15:42.628Z,95746.22
2023-04-14T04:16:47.375Z,95747.00
2023-04-14T04:17:51.378Z,95747.75
2023-04-14T04:18:54.746Z,95747.78
2023-04-14T04:19:58.642Z,95754.00
2023-04-14T04:21:01.416Z,95754.00
2023-04-14T04:22:04.125Z,95750.13
2023-04-14T04:23:07.660Z,95738.22
2023-04-14T04:24:11.280Z,95735.56
2023-04-14T04:25:13.933Z,95742.50
2023-04-14T04:26:16.929Z,95750.16
2023-04-14T04:27:27.810Z,95747.88
2023-04-14T04:28:30.796Z,95745.16
2023-04-14T04:29:32.649Z,95747.47
2023-04-14T04:30:39.451Z,95752.47
2023-04-14T04:31:41.421Z,95744.00
2023-04-14T04:32:43.144Z,95741.72
2023-04-14T04:33:46.763Z,95739.44
2023-04-14T04:34:49.659Z,95744.47
2023-04-14T04:35:52.474Z,95742.16
2023-04-14T04:36:54.399Z,95738.75
2023-04-14T04:37:58.135Z,95733.38
2023-04-14T04:38:59.993Z,95734.88
2023-04-14T04:40:01.938Z,95741.81
2023-04-14T04:41:03.544Z,95740.31
2023-04-14T04:42:06.933Z,95748.38
2023-04-14T04:43:08.493Z,95745.69
2023-04-14T04:44:10.046Z,95735.72
2023-04-14T04:45:12.091Z,95736.47
2023-04-14T04:46:44.331Z,95743.41
2023-04-14T04:47:46.175Z,95740.34
2023-04-14T04:48:52.611Z,95736.47
2023-04-14T04:49:54.110Z,95738.78
2023-04-14T04:50:55.773Z,95736.47
2023-04-14T04:51:57.432Z,95734.16
2023-04-14T04:52:58.942Z,95737.25
2023-04-14T04:54:00.634Z,95718.75
2023-04-14T04:55:02.215Z,95714.91
2023-04-14T04:56:04.028Z,95725.28
2023-04-14T04:57:05.676Z,95701.03
2023-04-14T04:58:07.187Z,95704.13
2023-04-14T04:59:09.042Z,95716.44
2023-04-14T05:00:10.970Z,95705.66
2023-04-14T05:01:12.829Z,95689.50
2023-04-14T05:02:14.459Z,95696.06
2023-04-14T05:03:16.608Z,95697.59
2023-04-14T05:04:18.267Z,95694.91
2023-04-14T05:05:19.829Z,95693.38
2023-04-14T05:06:21.829Z,95684.53
2023-04-14T05:07:23.484Z,95688.38
2023-04-14T05:08:24.991Z,95687.22
2023-04-14T05:09:27.558Z,95686.44
2023-04-14T05:10:29.239Z,95671.78
2023-04-14T05:11:31.755Z,95682.56
2023-04-14T05:12:33.273Z,95678.34
2023-04-14T05:13:34.804Z,95683.75
2023-04-14T05:14:36.600Z,95673.34
2023-04-14T05:15:38.136Z,95661.38
2023-04-14T05:16:39.721Z,95656.34
2023-04-14T05:17:41.294Z,95650.97
2023-04-14T05:18:43.144Z,95663.31
2023-04-14T05:19:45.078Z,95667.91
2023-04-14T05:20:46.769Z,95661.75
2023-04-14T05:21:48.325Z,95655.56
2023-04-14T05:22:49.887Z,95650.56
2023-04-14T05:23:51.484Z,95651.72
2023-04-14T05:24:53.168Z,95647.06
2023-04-14T05:26:07.228Z,95651.31
2023-04-14T05:27:19.328Z,95651.31
2023-04-14T05:28:20.958Z,95651.69
2023-04-14T05:29:22.576Z,95644.72
2023-04-14T05:30:24.468Z,95651.69
2023-04-14T05:31:26.101Z,95647.81
2023-04-14T05:32:29.133Z,95648.97
2023-04-14T05:33:31.043Z,95640.09
2023-04-14T05:34:32.578Z,95647.00
2023-04-14T05:35:34.173Z,95647.03
2023-04-14T05:36:35.899Z,95640.81
2023-04-14T05:37:37.445Z,95633.47
2023-04-14T05:38:40.087Z,95631.97
2023-04-14T05:39:41.822Z,95639.28
2023-04-14T05:40:43.355Z,95619.28
2023-04-14T05:41:44.981Z,95624.66
2023-04-14T05:42:46.509Z,95631.59
2023-04-14T05:43:48.040Z,95645.09
2023-04-14T05:44:49.555Z,95627.75
2023-04-14T05:45:51.384Z,95619.63
2023-04-14T05:46:53.032Z,95620.00
2023-04-14T05:47:54.713Z,95628.47
2023-04-14T05:48:57.642Z,95625.78
2023-04-14T05:49:59.413Z,95621.53
2023-04-14T05:51:01.381Z,95622.63
2023-04-14T05:52:02.972Z,95639.22
2023-04-14T05:53:04.499Z,95629.94
2023-04-14T05:54:06.029Z,95613.31
2023-04-14T05:55:08.004Z,95622.22
2023-04-14T05:56:11.599Z,95633.03
2023-04-14T05:57:13.191Z,95633.81
2023-04-14T05:58:15.003Z,95641.13
2023-04-14T05:59:17.337Z,95638.44
2023-04-14T06:00:19.393Z,95628.75
2023-04-14T06:01:20.976Z,95627.22
2023-04-14T06:02:22.845Z,95637.66
2023-04-14T06:03:24.865Z,95648.06
2023-04-14T06:04:26.633Z,95642.66
2023-04-14T06:05:28.412Z,95642.25
2023-04-14T06:06:32.500Z,95631.84
2023-04-14T06:07:34.616Z,95627.59
2023-04-14T06:08:36.136Z,95640.75
2023-04-14T06:09:37.678Z,95630.34
2023-04-14T06:10:39.301Z,95624.56
2023-04-14T06:11:40.879Z,95617.59
2023-04-14T06:12:42.419Z,95618.75
2023-04-14T06:13:43.944Z,95617.59
2023-04-14T06:14:45.601Z,95626.09
2023-04-14T06:15:47.158Z,95613.75
2023-04-14T06:16:50.793Z,95619.16
2023-04-14T06:17:52.668Z,95619.16
2023-04-14T06:18:54.274Z,95614.94
2023-04-14T06:19:56.408Z,95606.13
2023-04-14T06:20:57.963Z,95614.28
2023-04-14T06:21:59.507Z,95613.88
2023-04-14T06:23:01.113Z,95630.09
2023-04-14T06:24:02.659Z,95626.22
2023-04-14T06:25:04.524Z,95626.22
2023-04-14T06:26:06.766Z,95623.91
2023-04-14T06:27:09.298Z,95620.09
2023-04-14T06:28:10.950Z,95622.41
2023-04-14T06:29:12.633Z,95635.53
2023-04-14T06:30:16.860Z,95620.50
2023-04-14T06:31:18.616Z,95620.09
2023-04-14T06:32:20.497Z,95616.25
2023-04-14T06:33:22.411Z,95615.84
2023-04-14T06:34:24.359Z,95613.13
2023-04-14T06:35:32.848Z,95613.50
2023-04-14T06:36:34.919Z,95616.19
2023-04-14T06:37:36.506Z,95609.28
2023-04-14T06:38:38.061Z,95623.53
2023-04-14T06:39:39.610Z,95634.72
2023-04-14T06:40:41.189Z,95643.19
2023-04-14T06:41:43.882Z,95627.78
2023-04-14T06:42:45.532Z,95623.91
2023-04-14T06:43:47.055Z,95625.47
2023-04-14T06:44:48.610Z,95636.25
2023-04-14T06:45:50.998Z,95632.38
2023-04-14T06:46:52.787Z,95647.81
2023-04-14T06:47:56.058Z,95636.63
2023-04-14T06:48:57.739Z,95636.28
2023-04-14T06:49:59.290Z,95640.88
2023-04-14T06:51:00.913Z,95635.50
2023-04-14T06:52:02.769Z,95627.78
2023-04-14T06:53:06.148Z,95630.88
2023-04-14T06:54:07.744Z,95632.44
2023-04-14T06:55:09.651Z,95638.63
2023-04-14T06:56:11.311Z,95633.97
2023-04-14T06:57:12.860Z,95627.81
2023-04-14T06:58:14.449Z,95623.22
2023-04-14T06:59:16.030Z,95634.78
2023-04-14T07:00:17.852Z,95610.09
2023-04-14T07:01:19.507Z,95609.34
2023-04-14T07:02:21.124Z,95607.03
2023-04-14T07:03:23.063Z,95613.22
2023-04-14T07:04:24.817Z,95620.13
2023-04-14T07:05:26.366Z,95614.72
2023-04-14T07:06:27.946Z,95608.59
2023-04-14T07:07:29.612Z,95604.75
2023-04-14T07:08:33.086Z,95606.28
2023-04-14T07:09:35.027Z,95611.69
2023-04-14T07:10:36.613Z,95603.97
2023-04-14T07:11:38.206Z,95601.69
2023-04-14T07:12:39.771Z,95580.06
2023-04-14T07:13:41.977Z,95598.56
2023-04-14T07:14:50.893Z,95600.13
2023-04-14T07:15:52.471Z,95598.56
2023-04-14T07:16:54.139Z,95589.31
2023-04-14T07:17:59.335Z,95579.31
2023-04-14T07:19:01.479Z,95569.69
2023-04-14T07:20:03.205Z,95576.22
2023-04-14T07:21:05.000Z,95588.53
2023-04-14T07:22:08.176Z,95593.94
2023-04-14T07:23:09.723Z,95573.53
2023-04-14T07:24:13.106Z,95570.03
2023-04-14T07:25:15.681Z,95606.25
2023-04-14T07:26:17.227Z,95598.53
2023-04-14T07:27:18.743Z,95606.63
2023-04-14T07:28:22.112Z,95598.50
2023-04-14T07:29:23.752Z,95600.03
2023-04-14T07:30:26.454Z,95575.75
2023-04-14T07:31:28.061Z,95600.78
2023-04-14T07:32:29.710Z,95597.69
2023-04-14T07:33:31.417Z,95601.53
2023-04-14T07:34:33.307Z,95625.47
2023-04-14T07:35:34.965Z,95600.78
2023-04-14T07:36:36.697Z,95592.34
2023-04-14T07:37:38.475Z,95604.69
2023-04-14T07:38:40.111Z,95597.69
2023-04-14T07:39:41.711Z,95610.78
2023-04-14T07:40:43.271Z,95622.72
2023-04-14T07:41:44.864Z,95605.38
2023-04-14T07:42:46.981Z,95621.56
2023-04-14T07:43:48.614Z,95621.56
2023-04-14T07:44:50.194Z,95622.72
2023-04-14T07:45:54.609Z,95627.75
2023-04-14T07:46:56.138Z,95627.72
2023-04-14T07:47:58.164Z,95629.66
2023-04-14T07:48:59.931Z,95620.00
2023-04-14T07:50:01.635Z,95640.06
2023-04-14T07:51:04.608Z,95633.53
2023-04-14T07:52:06.163Z,95631.59
2023-04-14T07:53:07.884Z,95625.81
2023-04-14T07:54:09.696Z,95630.47
2023-04-14T07:55:11.238Z,95637.78
2023-04-14T07:56:13.114Z,95623.13
2023-04-14T07:57:14.680Z,95637.78
2023-04-14T07:58:16.552Z,95625.44
2023-04-14T07:59:18.073Z,95620.03
2023-04-14T08:00:19.788Z,95630.78
2023-04-14T08:01:21.321Z,95633.13
2023-04-14T08:02:23.032Z,95633.94
2023-04-14T08:03:25.023Z,95643.16
2023-04-14T08:04:27.149Z,95633.53
2023-04-14T08:05:28.806Z,95637.03
2023-04-14T08:06:30.543Z,95644.38
2023-04-14T08:07:32.364Z,95649.41
2023-04-14T08:08:34.986Z,95644.78
2023-04-14T08:09:36.545Z,95648.66
2023-04-14T08:10:39.221Z,95644.41
2023-04-14T08:11:41.415Z,95656.38
2023-04-14T08:12:42.960Z,95649.44
2023-04-14T08:13:44.660Z,95651.38
2023-04-14T08:14:47.799Z,95649.44
2023-04-14T08:15:49.554Z,95657.13
2023-04-14T08:16:51.428Z,95644.06
2023-04-14T08:17:53.089Z,95646.34
2023-04-14T08:18:56.544Z,95662.56
2023-04-14T08:19:59.458Z,95655.97
2023-04-14T08:21:01.054Z,95646.75
2023-04-14T08:22:03.433Z,95664.88
2023-04-14T08:23:05.048Z,95659.47
2023-04-14T08:24:07.331Z,95659.44
2023-04-14T08:25:12.153Z,95658.31
2023-04-14T08:26:14.020Z,95660.22
2023-04-14T08:27:15.967Z,95665.63
2023-04-14T08:28:17.506Z,95645.97
2023-04-14T08:29:19.045Z,95650.22
2023-04-14T08:30:20.702Z,95671.03
2023-04-14T08:31:25.735Z,95665.63
2023-04-14T08:32:28.498Z,95671.78
2023-04-14T08:33:30.353Z,95667.94
2023-04-14T08:34:32.056Z,95657.53
2023-04-14T08:35:40.844Z,95674.09
2023-04-14T08:36:44.054Z,95666.38
2023-04-14T08:37:45.848Z,95671.78
2023-04-14T08:38:47.434Z,95683.34
2023-04-14T08:39:49.622Z,95678.34
2023-04-14T08:40:55.269Z,95687.97
2023-04-14T08:41:58.153Z,95690.28
2023-04-14T08:42:59.762Z,95679.50
2023-04-14T08:44:01.718Z,95692.59
2023-04-14T08:45:03.381Z,95687.22
2023-04-14T08:46:06.088Z,95698.00
2023-04-14T08:47:08.253Z,95686.44
2023-04-14T08:48:15.158Z,95687.22
2023-04-14T08:49:28.737Z,95671.03
2023-04-14T08:50:40.992Z,95665.63
2023-04-14T08:51:44.980Z,95681.81
2023-04-14T08:52:49.490Z,95660.22
2023-04-14T08:53:53.565Z,95667.94
2023-04-14T08:54:57.058Z,95680.28
2023-04-14T08:56:02.896Z,95668.69
2023-04-14T08:57:05.211Z,95667.91
2023-04-14T08:58:08.383Z,95666.75
2023-04-14T08:59:11.577Z,95671.78
2023-04-14T09:00:14.342Z,95667.16
2023-04-14T09:01:16.697Z,95667.53
2023-04-14T09:02:19.299Z,95674.06
2023-04-14T09:03:21.929Z,95665.97
2023-04-14T09:04:24.017Z,95670.56
2023-04-14T09:05:26.394Z,95652.44
2023-04-14T09:06:28.699Z,95671.31
2023-04-14T09:07:30.387Z,95660.13
2023-04-14T09:08:34.765Z,95651.56
2023-04-14T09:09:36.780Z,95674.72
2023-04-14T09:10:38.597Z,95677.78
2023-04-14T09:11:41.038Z,95667.34
2023-04-14T09:12:42.777Z,95659.19
2023-04-14T09:13:44.790Z,95656.41
2023-04-14T09:14:46.682Z,95653.59
2023-04-14T09:15:49.847Z,95668.28
2023-04-14T09:16:53.929Z,95667.88
2023-04-14T09:17:55.712Z,95675.88
2023-04-14T09:19:06.487Z,95679.38
2023-04-14T09:20:38.964Z,95694.38
2023-04-14T09:21:53.352Z,95671.00
2023-04-14T09:22:53.495Z,95690.69
2023-04-14T09:23:55.153Z,95667.78
2023-04-14T09:24:57.363Z,95656.94
2023-04-14T09:25:59.052Z,95675.13
2023-04-14T09:27:05.444Z,95686.06
2023-04-14T09:28:07.835Z,95683.06
2023-04-14T09:29:09.463Z,95683.50
2023-04-14T09:30:11.978Z,95688.91
2023-04-14T09:31:13.789Z,95678.13
2023-04-14T09:32:15.686Z,95673.09
2023-04-14T09:34:28.548Z,95686.56
2023-04-14T09:35:51.117Z,95680.75
2023-04-14T09:37:09.774Z,95686.66
2023-04-14T09:38:11.566Z,95694.00
2023-04-14T09:39:17.755Z,95685.09
2023-04-14T09:40:29.748Z,95691.97
2023-04-14T09:41:32.658Z,95695.09
2023-04-14T09:42:42.566Z,95693.19
2023-04-14T09:43:45.752Z,95693.56
2023-04-14T09:44:53.380Z,95709.03
2023-04-14T09:45:56.083Z,95699.38
2023-04-14T09:47:06.333Z,95700.94
2023-04-14T09:48:09.159Z,95707.53
2023-04-14T09:49:10.890Z,95716.78
2023-04-14T09:50:12.412Z,95719.09
2023-04-14T09:51:14.125Z,95732.22
2023-04-14T09:52:15.726Z,95726.81
2023-04-14T09:53:28.511Z,95716.34
2023-04-14T09:54:30.414Z,95734.53
2023-04-14T09:55:31.959Z,95728.34
2023-04-14T09:56:33.559Z,95733.63
2023-04-14T09:57:37.443Z,95732.78
2023-04-14T09:58:40.246Z,95752.09
2023-04-14T09:59:42.026Z,95749.75
2023-04-14T10:00:45.637Z,95743.53
2023-04-14T10:01:47.253Z,95751.97
2023-04-14T10:03:01.485Z,95743.38
2023-04-14T10:04:04.459Z,95739.41
2023-04-14T10:05:07.001Z,95736.28
2023-04-14T10:06:10.733Z,95766.06
2023-04-14T10:07:12.361Z,95765.63
2023-04-14T10:08:14.151Z,95765.59
2023-04-14T10:09:22.760Z,95780.28
2023-04-14T10:10:24.264Z,95778.75
2023-04-14T10:11:30.710Z,95796.56
2023-04-14T10:12:32.626Z,95805.06
2023-04-14T10:13:34.197Z,95851.09
2023-04-14T10:14:42.889Z,95860.00
2023-04-14T10:15:44.511Z,95854.69
2023-04-14T10:16:46.168Z,95871.94
2023-04-14T10:17:47.755Z,95891.38
2023-04-14T10:18:49.575Z,95880.25
2023-04-14T10:19:51.363Z,95885.75
2023-04-14T10:20:52.928Z,95895.06
2023-04-14T10:21:54.684Z,95901.66
2023-04-14T10:22:56.796Z,95910.16
2023-04-14T10:23:58.512Z,95902.41
2023-04-14T10:25:00.352Z,95907.38
2023-04-14T10:26:03.573Z,95911.59
2023-04-14T10:27:06.124Z,95912.34
2023-04-14T10:28:08.009Z,95900.72
2023-04-14T10:29:09.569Z,95912.25
2023-04-14T10:30:12.136Z,95915.19
2023-04-14T10:31:28.641Z,95930.91
2023-04-14T10:32:35.509Z,95933.50
2023-04-14T10:33:40.412Z,95936.50
2023-04-14T10:34:59.609Z,95931.38
2023-04-14T10:36:02.001Z,95938.25
2023-04-14T10:37:16.523Z,95948.69
2023-04-14T10:38:18.136Z,95952.16
2023-04-14T10:39:24.487Z,95947.88
2023-04-14T10:40:26.414Z,95931.59
2023-04-14T10:41:36.555Z,95936.19
2023-04-14T10:42:54.958Z,95962.28
2023-04-14T10:43:56.620Z,95954.63
2023-04-14T10:45:08.878Z,95968.50
2023-04-14T10:46:10.534Z,95961.59
2023-04-14T10:47:23.468Z,95971.56
2023-04-14T10:48:26.902Z,95971.56
2023-04-14T10:49:35.803Z,95975.47
2023-04-14T10:50:47.734Z,95979.66
2023-04-14T10:51:50.012Z,95965.38
2023-04-14T10:52:56.083Z,95966.88
2023-04-14T10:53:58.161Z,95967.66
2023-04-14T10:55:08.810Z,95968.78
2023-04-14T10:56:11.282Z,95963.81
2023-04-14T10:57:14.388Z,95973.00
2023-04-14T10:58:20.979Z,95976.84
2023-04-14T10:59:22.566Z,95975.31
2023-04-14T11:00:27.502Z,95983.78
2023-04-14T11:01:32.378Z,95984.16
2023-04-14T11:02:35.234Z,96000.72
2023-04-14T11:03:44.973Z,95989.97
2023-04-14T11:05:06.502Z,96010.69
2023-04-14T11:06:07.992Z,96017.59
2023-04-14T11:07:09.683Z,96009.94
2023-04-14T11:08:27.077Z,96015.63
2023-04-14T11:09:32.149Z,96022.59
2023-04-14T11:10:34.021Z,96038.41
2023-04-14T11:11:35.589Z,96026.19
2023-04-14T11:12:43.407Z,96024.72
2023-04-14T11:13:45.507Z,96028.53
2023-04-14T11:14:47.423Z,96030.44
2023-04-14T11:15:58.359Z,96031.84
2023-04-14T11:17:05.133Z,96038.72
2023-04-14T11:18:17.266Z,96039.44
2023-04-14T11:19:19.096Z,96043.00
2023-04-14T11:20:23.553Z,96044.91
2023-04-14T11:21:26.345Z,96049.84
2023-04-14T11:22:41.836Z,96051.44
2023-04-14T11:23:44.009Z,96053.81
2023-04-14T11:24:49.027Z,96061.53
2023-04-14T11:25:51.555Z,96058.53
2023-04-14T11:26:54.872Z,96074.22
2023-04-14T11:27:56.779Z,96064.53
2023-04-14T11:29:00.424Z,96060.63
2023-04-14T11:30:02.247Z,96061.31
2023-04-14T11:31:06.212Z,96055.94
2023-04-14T11:32:07.742Z,96057.31
2023-04-14T11:33:09.459Z,96057.16
2023-04-14T11:34:11.039Z,96059.03
2023-04-14T11:35:12.615Z,96062.41
2023-04-14T11:36:14.255Z,96061.63
2023-04-14T11:37:15.901Z,96060.50
2023-04-14T11:38:17.449Z,96061.63
2023-04-14T11:39:19.490Z,96070.13
2023-04-14T11:40:21.781Z,96073.94
2023-04-14T11:41:25.846Z,96081.94
2023-04-14T11:42:28.415Z,96087.00
2023-04-14T11:43:32.754Z,96084.78
2023-04-14T11:44:35.053Z,96093.38
2023-04-14T11:45:42.681Z,96104.59
2023-04-14T11:46:44.424Z,96110.41
2023-04-14T11:48:04.226Z,96123.50
2023-04-14T11:49:05.965Z,96121.81
2023-04-14T11:50:08.121Z,96123.81
2023-04-14T11:51:09.724Z,96134.75
2023-04-14T11:52:11.327Z,96140.00
2023-04-14T11:53:15.902Z,96149.22
2023-04-14T11:54:18.555Z,96146.41
2023-04-14T11:55:20.287Z,96138.72
2023-04-14T11:56:21.945Z,96144.94
2023-04-14T11:57:24.224Z,96144.81
2023-04-14T11:58:27.268Z,96144.28
2023-04-14T11:59:29.603Z,96156.25
2023-04-14T12:00:31.361Z,96148.75
2023-04-14T12:01:33.348Z,96144.91
2023-04-14T12:02:36.056Z,96144.84
2023-04-14T12:03:39.262Z,96154.22
2023-04-14T12:04:41.468Z,96154.53
2023-04-14T12:05:43.595Z,96160.81
2023-04-14T12:06:45.380Z,96165.97
2023-04-14T12:07:48.884Z,96157.38
2023-04-14T12:08:56.882Z,96155.66
2023-04-14T12:09:58.847Z,96155.56
2023-04-14T12:11:13.984Z,96154.72
2023-04-14T12:12:17.756Z,96151.56
2023-04-14T12:13:19.526Z,96157.41
2023-04-14T12:14:22.183Z,96166.59
2023-04-14T12:15:28.176Z,96160.09
2023-04-14T12:16:29.859Z,96157.91
2023-04-14T12:17:31.780Z,96156.16
2023-04-14T12:18:33.388Z,96144.44
2023-04-14T12:19:36.241Z,96135.25
2023-04-14T12:21:02.184Z,96138.09
2023-04-14T12:22:08.149Z,96133.97
2023-04-14T12:23:09.884Z,96139.50
2023-04-14T12:24:11.526Z,96148.53
2023-04-14T12:25:13.415Z,96152.31
2023-04-14T12:26:14.994Z,96167.44
2023-04-14T12:27:22.375Z,96160.63
2023-04-14T12:28:29.105Z,96162.22
2023-04-14T12:29:34.761Z,96156.59
2023-04-14T12:30:37.798Z,96140.44
2023-04-14T12:31:44.075Z,96139.56